Time;durP1;ratioP1;P1;durP2;ratioP2;P2;SDS_P1;SDS_P2;PMS_P1;PMS_P2;Temp;Humidity;BMP_temperature;BMP_pressure;BME280_temperature;BME280_humidity;BME280_pressure;Samples;Min_cycle;Max_cycle;Signal;HPM_P1;HPM_P2
2022/11/08 00:02:12;;;;;;;3.43;2.83;;;11.00;99.90;;;;;;950523;147;27441;-78
2022/11/08 00:04:39;;;;;;;3.80;2.83;;;11.00;99.90;;;;;;937315;148;27367;-78
2022/11/08 00:15:20;;;;;;;6.37;2.90;;;11.10;99.90;;;;;;955341;145;27401;-79
2022/11/08 00:17:47;;;;;;;5.87;2.63;;;11.10;99.90;;;;;;953885;145;27435;-78
2022/11/08 00:20:15;;;;;;;3.87;3.00;;;11.20;99.90;;;;;;953191;145;27448;-78
2022/11/08 00:22:42;;;;;;;6.07;2.67;;;11.20;99.90;;;;;;948513;147;27443;-78
2022/11/08 00:25:08;;;;;;;2.97;2.67;;;11.20;99.90;;;;;;946789;147;27303;-78
2022/11/08 00:27:35;;;;;;;3.60;2.90;;;11.30;99.90;;;;;;937605;148;27372;-78
2022/11/08 00:30:02;;;;;;;4.03;2.67;;;11.30;99.90;;;;;;934195;148;27458;-78
2022/11/08 00:32:28;;;;;;;3.60;2.57;;;11.30;99.90;;;;;;954052;147;27361;-78
2022/11/08 00:34:55;;;;;;;3.10;2.53;;;11.30;99.90;;;;;;957113;146;27321;-78
2022/11/08 00:37:21;;;;;;;3.33;3.03;;;11.30;99.90;;;;;;935612;149;28003;-78
2022/11/08 00:39:48;;;;;;;4.20;2.80;;;11.40;99.90;;;;;;943782;148;27414;-78
2022/11/08 00:42:15;;;;;;;4.00;2.80;;;11.40;99.90;;;;;;955631;145;27375;-78
2022/11/08 00:44:41;;;;;;;2.97;2.23;;;11.30;99.90;;;;;;954353;145;27387;-78
2022/11/08 00:47:08;;;;;;;7.30;3.30;;;11.30;99.90;;;;;;935213;149;27475;-78
2022/11/08 00:49:34;;;;;;;3.57;3.10;;;11.30;99.90;;;;;;937006;148;27314;-77
2022/11/08 00:52:01;;;;;;;6.57;3.67;;;11.30;99.90;;;;;;953319;145;27205;-78
2022/11/08 00:54:28;;;;;;;3.90;2.73;;;11.30;99.90;;;;;;944440;148;27414;-78
2022/11/08 00:56:54;;;;;;;4.47;3.03;;;11.30;99.90;;;;;;953245;146;27424;-78
2022/11/08 00:59:21;;;;;;;4.50;3.10;;;11.20;99.90;;;;;;956095;146;27433;-78
2022/11/08 01:01:47;;;;;;;4.73;3.00;;;11.20;99.90;;;;;;954138;148;27241;-78
2022/11/08 01:04:14;;;;;;;4.07;2.80;;;11.20;99.90;;;;;;952506;148;27292;-78
2022/11/08 01:06:40;;;;;;;4.03;2.40;;;11.20;99.90;;;;;;936733;148;27319;-78
2022/11/08 01:09:07;;;;;;;6.20;3.27;;;11.10;99.90;;;;;;955336;145;27467;-78
2022/11/08 01:11:34;;;;;;;6.20;3.17;;;11.10;99.90;;;;;;940445;148;27353;-78
2022/11/08 01:14:00;;;;;;;6.67;2.70;;;11.10;99.90;;;;;;941597;148;27768;-78
2022/11/08 01:16:27;;;;;;;3.70;2.93;;;11.10;99.90;;;;;;953217;145;27301;-78
2022/11/08 01:18:53;;;;;;;4.90;2.80;;;11.00;99.90;;;;;;951341;147;27456;-78
2022/11/08 01:21:20;;;;;;;4.77;3.20;;;11.00;99.90;;;;;;950779;147;27351;-78
2022/11/08 01:23:47;;;;;;;6.43;3.10;;;11.00;99.90;;;;;;950803;147;27458;-78
2022/11/08 01:26:13;;;;;;;3.73;2.70;;;11.00;99.90;;;;;;951859;147;27331;-78
2022/11/08 01:28:40;;;;;;;5.07;2.80;;;10.90;99.90;;;;;;951505;147;27346;-78
2022/11/08 01:31:06;;;;;;;4.33;3.03;;;10.90;99.90;;;;;;950156;147;27389;-78
2022/11/08 01:33:33;;;;;;;5.50;3.47;;;10.90;99.90;;;;;;950633;147;27938;-78
2022/11/08 01:36:00;;;;;;;3.97;3.07;;;10.90;99.90;;;;;;953344;147;27432;-78
2022/11/08 01:38:26;;;;;;;7.03;2.80;;;10.90;99.90;;;;;;951422;147;27367;-79
2022/11/08 01:40:53;;;;;;;3.43;2.87;;;10.90;99.90;;;;;;951233;146;28321;-79
2022/11/08 01:43:25;;;;;;;4.33;2.93;;;10.90;99.90;;;;;;952085;147;27419;-79
2022/11/08 01:46:29;;;;;;;5.27;3.40;;;10.80;99.90;;;;;;940126;151;27424;-79
2022/11/08 01:49:20;;;;;;;4.27;2.80;;;10.80;99.90;;;;;;939350;151;27316;-79
2022/11/08 01:52:05;;;;;;;3.73;2.97;;;10.80;99.90;;;;;;940114;151;27447;-79
2022/11/08 01:54:34;;;;;;;4.80;3.30;;;10.70;99.90;;;;;;938718;151;27423;-79
2022/11/08 01:57:01;;;;;;;3.67;3.23;;;10.70;99.90;;;;;;937762;149;27352;-79
2022/11/08 01:59:27;;;;;;;4.93;3.00;;;10.70;99.90;;;;;;951844;149;27350;-79
2022/11/08 02:01:54;;;;;;;6.33;2.70;;;10.70;99.90;;;;;;940205;148;27404;-79
2022/11/08 02:04:20;;;;;;;4.73;2.93;;;10.70;99.90;;;;;;940011;151;27339;-79
2022/11/08 02:06:47;;;;;;;4.70;2.80;;;10.70;99.90;;;;;;939051;151;27341;-78
2022/11/08 02:09:14;;;;;;;3.87;2.90;;;10.60;99.90;;;;;;938291;150;27404;-78
2022/11/08 02:11:40;;;;;;;3.03;2.77;;;10.60;99.90;;;;;;935420;149;27337;-79
2022/11/08 02:14:07;;;;;;;3.63;2.97;;;10.60;99.90;;;;;;936062;152;27310;-79
2022/11/08 02:16:33;;;;;;;5.50;3.30;;;10.60;99.90;;;;;;954824;148;27395;-78
2022/11/08 02:19:00;;;;;;;3.87;2.87;;;10.60;99.90;;;;;;954839;149;27252;-79
2022/11/08 02:21:27;;;;;;;4.87;3.00;;;10.60;99.90;;;;;;952768;148;27249;-78
2022/11/08 02:23:53;;;;;;;3.40;2.60;;;10.60;99.90;;;;;;938507;148;27699;-78
2022/11/08 02:26:23;;;;;;;4.90;2.97;;;10.60;99.90;;;;;;938131;151;28653;-78
2022/11/08 02:28:49;;;;;;;3.97;2.60;;;10.60;99.90;;;;;;936870;151;27452;-80
2022/11/08 02:31:16;;;;;;;4.97;2.87;;;10.60;99.90;;;;;;939338;151;27432;-79
2022/11/08 02:33:42;;;;;;;5.13;3.13;;;10.60;99.90;;;;;;939077;149;27382;-79
2022/11/08 02:36:09;;;;;;;4.10;2.70;;;10.60;99.90;;;;;;944060;149;27449;-79
2022/11/08 02:38:36;;;;;;;7.27;3.33;;;10.60;99.90;;;;;;937185;152;27935;-79
2022/11/08 02:41:02;;;;;;;4.23;2.80;;;10.60;99.90;;;;;;937127;151;27379;-79
2022/11/08 02:43:29;;;;;;;6.00;3.00;;;10.60;99.90;;;;;;949938;148;27378;-79
2022/11/08 02:45:55;;;;;;;3.07;2.80;;;10.60;99.90;;;;;;947174;147;27383;-79
2022/11/08 02:48:22;;;;;;;4.13;2.57;;;10.60;99.90;;;;;;969298;144;27353;-79
2022/11/08 02:50:49;;;;;;;4.73;2.73;;;10.50;99.90;;;;;;968577;144;27463;-79
2022/11/08 02:53:15;;;;;;;3.83;2.70;;;10.50;99.90;;;;;;966629;144;27319;-79
2022/11/08 02:55:42;;;;;;;5.93;3.00;;;10.50;99.90;;;;;;951770;147;27444;-79
2022/11/08 02:58:08;;;;;;;7.17;3.00;;;10.50;99.90;;;;;;956893;147;27308;-79
2022/11/08 03:00:35;;;;;;;5.37;2.87;;;10.50;99.90;;;;;;956628;147;27345;-79
2022/11/08 03:03:01;;;;;;;4.30;2.90;;;10.50;99.90;;;;;;955458;148;27323;-79
2022/11/08 03:05:28;;;;;;;3.47;2.60;;;10.50;99.90;;;;;;956437;148;27334;-79
2022/11/08 03:07:55;;;;;;;3.10;2.73;;;10.50;99.90;;;;;;956175;148;27339;-79
2022/11/08 03:10:21;;;;;;;3.60;2.77;;;10.50;99.90;;;;;;956386;148;27854;-79
2022/11/08 03:12:48;;;;;;;3.67;2.93;;;10.50;99.90;;;;;;956102;148;27307;-79
2022/11/08 03:15:14;;;;;;;4.33;2.80;;;10.50;99.90;;;;;;957298;148;27321;-79
2022/11/08 03:17:41;;;;;;;7.77;2.77;;;10.50;99.90;;;;;;958228;148;28001;-80
2022/11/08 03:20:08;;;;;;;6.37;2.70;;;10.50;99.90;;;;;;956499;148;27286;-80
2022/11/08 03:22:34;;;;;;;3.93;2.80;;;10.50;99.90;;;;;;957443;147;27307;-80
2022/11/08 03:25:01;;;;;;;5.70;3.00;;;10.50;99.90;;;;;;957954;147;27307;-80
2022/11/08 03:27:27;;;;;;;4.00;2.50;;;10.40;99.90;;;;;;958361;147;27439;-80
2022/11/08 03:29:54;;;;;;;4.17;2.57;;;10.40;99.90;;;;;;938733;149;27775;-80
2022/11/08 03:32:21;;;;;;;5.83;2.80;;;10.40;99.90;;;;;;965524;144;27416;-79
2022/11/08 03:34:47;;;;;;;5.90;3.17;;;10.40;99.90;;;;;;967916;144;27367;-80
2022/11/08 03:37:14;;;;;;;3.07;2.50;;;10.40;99.90;;;;;;967819;144;27411;-79
2022/11/08 03:39:40;;;;;;;3.27;2.43;;;10.40;99.90;;;;;;959114;148;27336;-79
2022/11/08 03:42:07;;;;;;;5.27;2.53;;;10.40;99.90;;;;;;965578;147;27362;-79
2022/11/08 03:44:33;;;;;;;4.40;3.17;;;10.40;99.90;;;;;;958861;148;27262;-79
2022/11/08 03:47:00;;;;;;;8.83;2.87;;;10.40;99.90;;;;;;961146;148;27382;-80
2022/11/08 03:49:27;;;;;;;4.33;2.50;;;10.30;99.90;;;;;;971447;143;27290;-79
2022/11/08 03:51:53;;;;;;;3.57;2.60;;;10.30;99.90;;;;;;961553;147;27270;-79
2022/11/08 03:54:20;;;;;;;5.40;2.50;;;10.30;99.90;;;;;;964563;147;27426;-79
2022/11/08 03:56:46;;;;;;;4.40;2.97;;;10.30;99.90;;;;;;964576;147;27313;-80
2022/11/08 03:59:13;;;;;;;3.47;2.77;;;10.30;99.90;;;;;;963025;146;27310;-79
2022/11/08 04:01:40;;;;;;;3.13;2.83;;;10.30;99.90;;;;;;962795;147;27298;-80
2022/11/08 04:04:06;;;;;;;3.97;3.10;;;10.30;99.90;;;;;;961453;147;27225;-79
2022/11/08 04:06:33;;;;;;;4.43;2.27;;;10.30;99.90;;;;;;962184;147;27333;-79
2022/11/08 04:08:59;;;;;;;3.07;2.43;;;10.30;99.90;;;;;;962595;147;27723;-79
2022/11/08 04:16:55;;;;;;;3.70;2.40;;;10.30;99.90;;;;;;931372;149;27360;-80
2022/11/08 04:22:07;;;;;;;5.07;2.60;;;10.30;99.90;;;;;;946336;147;27349;-80
2022/11/08 04:24:33;;;;;;;3.40;2.60;;;10.30;99.90;;;;;;962285;147;27414;-79
2022/11/08 04:27:01;;;;;;;2.97;2.40;;;10.30;99.90;;;;;;961351;147;27753;-79
2022/11/08 04:29:26;;;;;;;3.60;2.70;;;10.30;99.90;;;;;;962036;147;27279;-79
2022/11/08 04:31:53;;;;;;;5.67;3.10;;;10.30;99.90;;;;;;971135;145;27297;-79
2022/11/08 04:34:20;;;;;;;3.97;2.80;;;10.30;99.90;;;;;;963344;146;27506;-80
2022/11/08 04:36:46;;;;;;;2.77;2.37;;;10.30;99.90;;;;;;952936;146;27374;-80
2022/11/08 04:39:13;;;;;;;6.67;3.00;;;10.30;99.90;;;;;;961595;148;27326;-79
2022/11/08 04:41:39;;;;;;;5.43;2.40;;;10.30;99.90;;;;;;962009;146;27757;-79
2022/11/08 04:44:06;;;;;;;4.73;2.73;;;10.30;99.90;;;;;;961664;146;27369;-79
2022/11/08 04:46:33;;;;;;;2.77;2.43;;;10.30;99.90;;;;;;955554;145;27536;-80
2022/11/08 04:48:59;;;;;;;6.27;2.67;;;10.30;99.90;;;;;;951443;146;27359;-79
2022/11/08 04:51:26;;;;;;;6.57;2.67;;;10.30;99.90;;;;;;949885;149;27340;-79
2022/11/08 04:53:52;;;;;;;3.60;2.33;;;10.20;99.90;;;;;;950712;150;27319;-79
2022/11/08 04:56:19;;;;;;;4.37;2.70;;;10.20;99.90;;;;;;951101;150;27573;-79
2022/11/08 04:58:48;;;;;;;4.80;2.77;;;10.20;99.90;;;;;;947402;147;27280;-79
2022/11/08 05:01:15;;;;;;;2.90;2.60;;;10.20;99.90;;;;;;950757;150;27319;-79
2022/11/08 05:03:41;;;;;;;4.17;2.70;;;10.20;99.90;;;;;;948961;149;27375;-79
2022/11/08 05:06:11;;;;;;;3.20;2.60;;;10.30;99.90;;;;;;948767;149;27257;-79
2022/11/08 05:08:37;;;;;;;6.20;2.83;;;10.30;99.90;;;;;;949498;148;27372;-80
2022/11/08 05:11:07;;;;;;;4.40;3.20;;;10.30;99.90;;;;;;949310;148;27298;-79
2022/11/08 05:13:34;;;;;;;4.23;2.70;;;10.30;99.90;;;;;;946555;148;27340;-79
2022/11/08 05:16:03;;;;;;;5.33;2.97;;;10.30;99.90;;;;;;951499;149;28262;-79
2022/11/08 05:18:29;;;;;;;4.83;3.10;;;10.30;99.90;;;;;;948984;146;27406;-79
2022/11/08 05:23:41;;;;;;;3.63;2.70;;;10.20;99.90;;;;;;950342;146;27308;-80
2022/11/08 05:26:07;;;;;;;5.07;2.80;;;10.20;99.90;;;;;;947393;147;27442;-79
2022/11/08 05:28:34;;;;;;;4.33;2.30;;;10.20;99.90;;;;;;948676;150;27348;-80
2022/11/08 05:31:01;;;;;;;4.37;2.67;;;10.20;99.90;;;;;;949498;149;27287;-79
2022/11/08 05:33:27;;;;;;;4.27;2.60;;;10.10;99.90;;;;;;947728;150;27410;-79
2022/11/08 05:35:54;;;;;;;4.23;2.57;;;10.10;99.90;;;;;;950429;148;27353;-80
2022/11/08 05:38:20;;;;;;;3.00;2.80;;;10.00;99.90;;;;;;949755;149;27405;-79
2022/11/08 05:40:47;;;;;;;3.60;2.43;;;10.00;99.90;;;;;;949794;148;28147;-79
2022/11/08 05:43:13;;;;;;;2.77;2.40;;;10.00;99.90;;;;;;950187;150;27364;-79
2022/11/08 05:45:40;;;;;;;2.70;2.40;;;9.90;99.90;;;;;;943981;148;27282;-79
2022/11/08 05:48:07;;;;;;;4.10;2.57;;;9.90;99.90;;;;;;952610;148;27373;-79
2022/11/08 05:50:33;;;;;;;5.33;2.53;;;9.80;99.90;;;;;;951957;149;27329;-80
2022/11/08 05:53:00;;;;;;;4.77;2.50;;;9.80;99.90;;;;;;950506;149;27340;-79
2022/11/08 05:55:26;;;;;;;4.33;2.50;;;9.80;99.90;;;;;;949900;149;27304;-79
2022/11/08 05:57:53;;;;;;;3.43;2.40;;;9.70;99.90;;;;;;948222;149;27297;-80
2022/11/08 06:00:20;;;;;;;4.60;2.50;;;9.70;99.90;;;;;;956190;148;27396;-79
2022/11/08 06:02:46;;;;;;;3.13;2.83;;;9.70;99.90;;;;;;949731;149;27392;-79
2022/11/08 06:05:13;;;;;;;2.77;2.57;;;9.70;99.90;;;;;;948224;148;27362;-79
2022/11/08 06:07:39;;;;;;;5.00;3.00;;;9.70;99.90;;;;;;953404;146;28384;-79
2022/11/08 06:10:06;;;;;;;4.33;2.40;;;9.70;99.90;;;;;;958662;148;27652;-79
2022/11/08 06:12:33;;;;;;;3.67;2.63;;;9.70;99.90;;;;;;956841;148;27344;-80
2022/11/08 06:14:59;;;;;;;2.80;2.53;;;9.70;99.90;;;;;;958908;148;27300;-79
2022/11/08 06:17:26;;;;;;;4.33;2.80;;;9.70;99.90;;;;;;958119;148;27328;-79
2022/11/08 06:19:52;;;;;;;2.93;2.40;;;9.60;99.90;;;;;;955189;148;27323;-79
2022/11/08 06:22:19;;;;;;;3.23;2.37;;;9.60;99.90;;;;;;952209;149;27368;-79
2022/11/08 06:24:45;;;;;;;4.50;2.87;;;9.60;99.90;;;;;;951101;149;27329;-79
2022/11/08 06:27:13;;;;;;;4.07;2.40;;;9.60;99.90;;;;;;950207;149;27271;-79
2022/11/08 06:29:41;;;;;;;3.00;2.40;;;9.60;99.90;;;;;;947765;150;27400;-80
2022/11/08 06:32:05;;;;;;;2.63;2.43;;;9.60;99.90;;;;;;958281;148;27346;-79
2022/11/08 06:34:32;;;;;;;4.63;2.50;;;9.60;99.90;;;;;;962059;148;27321;-80
2022/11/08 06:36:59;;;;;;;4.30;2.43;;;9.50;99.90;;;;;;958380;148;27301;-79
2022/11/08 06:39:25;;;;;;;2.80;2.47;;;9.50;99.90;;;;;;942984;148;27333;-80
2022/11/08 06:41:52;;;;;;;3.07;2.17;;;9.50;99.90;;;;;;942189;151;27277;-79
2022/11/08 06:44:18;;;;;;;2.30;2.10;;;9.50;99.90;;;;;;957125;148;27914;-80
2022/11/08 06:46:45;;;;;;;3.10;2.67;;;9.40;99.90;;;;;;959116;146;27352;-80
2022/11/08 06:49:11;;;;;;;4.47;2.63;;;9.50;99.90;;;;;;961515;148;27273;-80
2022/11/08 06:51:38;;;;;;;3.93;3.03;;;9.50;99.90;;;;;;962802;145;27376;-80
2022/11/08 06:54:07;;;;;;;4.73;2.70;;;9.60;99.90;;;;;;961084;146;27340;-80
2022/11/08 06:56:34;;;;;;;5.77;2.60;;;9.80;99.90;;;;;;971206;144;27390;-80
2022/11/08 06:59:00;;;;;;;5.20;2.50;;;10.10;99.90;;;;;;972233;144;27957;-80
2022/11/08 07:01:27;;;;;;;3.60;2.70;;;10.40;99.90;;;;;;971329;144;27799;-80
2022/11/08 07:03:54;;;;;;;3.90;2.10;;;10.70;99.90;;;;;;970149;144;27308;-80
2022/11/08 07:06:20;;;;;;;2.87;2.40;;;11.00;99.90;;;;;;971015;144;27370;-79
2022/11/08 07:08:47;;;;;;;2.80;2.43;;;11.20;99.90;;;;;;960317;145;27371;-80
2022/11/08 07:11:13;;;;;;;2.20;2.00;;;11.50;99.90;;;;;;962409;145;27350;-79
2022/11/08 07:13:40;;;;;;;2.77;2.57;;;11.70;99.90;;;;;;951562;147;27276;-80
2022/11/08 07:16:07;;;;;;;3.07;2.27;;;11.80;99.90;;;;;;960807;146;27298;-79
2022/11/08 07:18:33;;;;;;;3.67;1.93;;;11.90;99.90;;;;;;956138;146;27325;-80
2022/11/08 07:21:00;;;;;;;3.40;2.23;;;11.90;99.90;;;;;;961318;146;27361;-80
2022/11/08 07:23:26;;;;;;;3.70;2.20;;;12.00;99.90;;;;;;956552;146;27375;-80
2022/11/08 07:25:53;;;;;;;3.20;2.30;;;12.00;99.90;;;;;;956364;148;28495;-80
2022/11/08 07:28:19;;;;;;;3.10;2.03;;;12.00;99.90;;;;;;958216;148;27286;-80
2022/11/08 07:30:46;;;;;;;3.10;2.40;;;12.10;99.90;;;;;;951415;147;27392;-78
2022/11/08 07:33:13;;;;;;;2.40;2.20;;;12.20;99.90;;;;;;950944;147;27556;-78
2022/11/08 07:35:39;;;;;;;4.73;2.47;;;12.30;99.90;;;;;;971050;144;27336;-78
2022/11/08 07:38:06;;;;;;;2.33;2.13;;;12.40;99.90;;;;;;970121;144;27433;-78
2022/11/08 07:40:35;;;;;;;3.23;2.27;;;12.50;99.90;;;;;;961478;148;27430;-78
2022/11/08 07:43:02;;;;;;;2.63;2.43;;;12.60;99.90;;;;;;961013;148;27236;-78
2022/11/08 07:45:28;;;;;;;2.87;2.20;;;12.60;99.90;;;;;;962012;148;27322;-78
2022/11/08 07:47:58;;;;;;;3.93;2.47;;;12.60;99.90;;;;;;962354;146;27373;-78
2022/11/08 07:50:24;;;;;;;3.70;2.30;;;12.70;99.90;;;;;;958420;148;27382;-77
2022/11/08 07:52:51;;;;;;;2.50;2.30;;;12.80;99.90;;;;;;961848;148;27282;-78
2022/11/08 07:55:17;;;;;;;3.07;2.13;;;12.90;99.90;;;;;;960742;146;27262;-79
2022/11/08 07:57:44;;;;;;;2.97;2.20;;;13.00;99.90;;;;;;961005;147;27399;-78
2022/11/08 08:00:11;;;;;;;3.53;2.43;;;13.00;99.90;;;;;;961231;146;27309;-78
2022/11/08 08:02:37;;;;;;;2.57;2.07;;;13.10;99.90;;;;;;959448;148;27280;-78
2022/11/08 08:05:04;;;;;;;2.03;1.93;;;13.10;99.90;;;;;;962114;148;27358;-78
2022/11/08 08:07:30;;;;;;;4.78;2.50;;;13.10;99.90;;;;;;961564;147;27347;-79
2022/11/08 08:09:57;;;;;;;2.73;2.33;;;13.20;99.90;;;;;;961609;148;27313;-78
2022/11/08 08:12:23;;;;;;;3.67;2.17;;;13.20;99.90;;;;;;961676;147;27328;-78
2022/11/08 08:14:50;;;;;;;3.53;2.40;;;13.30;99.90;;;;;;960107;148;27754;-78
2022/11/08 08:17:17;;;;;;;3.77;2.10;;;13.30;99.90;;;;;;959884;147;27469;-78
2022/11/08 08:19:43;;;;;;;2.63;1.87;;;13.40;99.90;;;;;;955913;146;27714;-78
2022/11/08 08:22:10;;;;;;;4.23;2.50;;;13.40;99.90;;;;;;953464;146;27412;-78
2022/11/08 08:24:36;;;;;;;2.30;2.10;;;13.40;99.90;;;;;;961902;145;27351;-78
2022/11/08 08:27:03;;;;;;;3.10;2.30;;;13.40;99.90;;;;;;963024;145;27343;-78
2022/11/08 08:29:30;;;;;;;2.43;2.23;;;13.50;99.90;;;;;;960432;148;27321;-78
2022/11/08 08:31:56;;;;;;;4.47;2.17;;;13.60;99.90;;;;;;960957;145;27319;-78
2022/11/08 08:34:23;;;;;;;3.92;2.05;;;13.80;99.90;;;;;;956588;146;27399;-78
2022/11/08 08:36:49;;;;;;;3.25;2.08;;;13.90;99.90;;;;;;960455;148;27439;-79
2022/11/08 08:39:16;;;;;;;2.10;1.90;;;14.10;99.90;;;;;;960542;146;27469;-78
2022/11/08 08:41:43;;;;;;;2.25;1.87;;;14.30;99.90;;;;;;970420;144;27399;-78
2022/11/08 08:44:09;;;;;;;3.92;2.35;;;14.50;99.90;;;;;;969629;144;27279;-78
2022/11/08 08:46:36;;;;;;;2.55;1.98;;;14.60;99.90;;;;;;971834;144;27299;-78
2022/11/08 08:49:02;;;;;;;2.52;1.92;;;14.60;99.20;;;;;;963964;144;27503;-78
2022/11/08 08:51:29;;;;;;;3.30;2.20;;;14.70;98.60;;;;;;953065;145;27344;-78
2022/11/08 08:53:55;;;;;;;2.35;2.05;;;14.70;98.10;;;;;;956394;145;27335;-78
2022/11/08 08:56:22;;;;;;;3.23;2.10;;;14.70;97.80;;;;;;954604;145;27371;-78
2022/11/08 08:58:49;;;;;;;2.50;2.12;;;14.70;97.80;;;;;;955540;145;27373;-78
2022/11/08 09:01:15;;;;;;;3.90;2.07;;;14.70;97.90;;;;;;952767;145;27317;-78
2022/11/08 09:03:42;;;;;;;4.90;2.17;;;14.70;97.80;;;;;;955537;145;27412;-78
2022/11/08 09:06:08;;;;;;;3.55;1.87;;;14.80;97.90;;;;;;952866;145;27423;-78
2022/11/08 09:08:35;;;;;;;2.92;1.82;;;14.80;98.00;;;;;;951499;147;27382;-78
2022/11/08 09:11:02;;;;;;;3.43;2.40;;;14.80;98.10;;;;;;949689;147;27267;-79
2022/11/08 09:13:31;;;;;;;3.08;1.98;;;14.90;98.20;;;;;;951735;147;27447;-79
2022/11/08 09:15:55;;;;;;;2.77;2.17;;;14.90;98.10;;;;;;949753;147;27357;-80
2022/11/08 09:18:21;;;;;;;1.70;1.60;;;15.00;98.10;;;;;;953040;147;27433;-78
2022/11/08 09:20:49;;;;;;;2.00;1.85;;;15.10;98.30;;;;;;953221;147;27310;-79
2022/11/08 09:23:16;;;;;;;3.25;1.80;;;15.20;98.40;;;;;;950721;147;27370;-79
2022/11/08 09:25:42;;;;;;;2.40;1.80;;;15.30;98.30;;;;;;950675;147;27406;-78
2022/11/08 09:28:09;;;;;;;1.75;1.62;;;15.40;98.30;;;;;;950691;147;27306;-79
2022/11/08 09:30:35;;;;;;;2.12;1.80;;;15.50;98.00;;;;;;952171;147;27381;-79
2022/11/08 09:33:02;;;;;;;2.33;1.82;;;15.60;97.60;;;;;;954112;147;27299;-79
2022/11/08 09:35:29;;;;;;;1.70;1.60;;;15.80;97.10;;;;;;950498;147;27337;-78
2022/11/08 09:37:55;;;;;;;3.85;2.00;;;15.90;96.50;;;;;;949294;147;27425;-79
2022/11/08 09:40:31;;;;;;;2.67;1.80;;;16.00;96.00;;;;;;951200;147;27326;-79
2022/11/08 09:43:03;;;;;;;2.50;1.60;;;16.00;95.50;;;;;;951443;147;27334;-78
2022/11/08 09:45:33;;;;;;;1.70;1.60;;;16.20;95.30;;;;;;949501;147;27409;-78
2022/11/08 09:48:02;;;;;;;1.60;1.45;;;16.20;94.90;;;;;;952182;147;27365;-77
2022/11/08 09:50:37;;;;;;;2.70;1.60;;;16.30;94.70;;;;;;940304;147;27425;-78
2022/11/08 09:53:34;;;;;;;2.58;1.70;;;16.40;94.80;;;;;;934719;149;27426;-78
2022/11/08 09:55:58;;;;;;;2.25;1.82;;;16.50;94.40;;;;;;932130;149;27444;-78
2022/11/08 09:58:27;;;;;;;1.72;1.60;;;16.60;94.00;;;;;;935298;149;27381;-78
2022/11/08 10:00:54;;;;;;;1.80;1.42;;;16.70;94.00;;;;;;936051;149;27430;-79
2022/11/08 10:03:22;;;;;;;1.75;1.30;;;16.80;93.10;;;;;;935217;149;27283;-78
2022/11/08 10:05:59;;;;;;;1.55;1.42;;;16.90;92.70;;;;;;932807;149;27437;-78
2022/11/08 10:08:32;;;;;;;2.25;1.42;;;16.90;92.00;;;;;;934456;149;27714;-79
2022/11/08 10:11:07;;;;;;;2.05;1.35;;;17.00;91.50;;;;;;935774;149;27390;-78
2022/11/08 10:13:51;;;;;;;1.85;1.20;;;17.10;91.00;;;;;;935113;149;27781;-77
2022/11/08 10:16:18;;;;;;;1.10;1.10;;;17.10;90.80;;;;;;936257;149;27324;-78
2022/11/08 10:18:47;;;;;;;2.08;1.30;;;17.20;90.80;;;;;;932220;149;27419;-77
2022/11/08 10:21:23;;;;;;;1.30;1.20;;;17.20;90.50;;;;;;934056;149;27484;-79
2022/11/08 10:24:01;;;;;;;1.55;1.12;;;17.20;90.20;;;;;;933322;149;27371;-77
2022/11/08 10:26:28;;;;;;;0.90;0.90;;;17.30;90.40;;;;;;933678;149;27831;-77
2022/11/08 10:28:55;;;;;;;1.30;1.20;;;17.30;90.20;;;;;;932593;149;27312;-78
2022/11/08 10:31:21;;;;;;;1.20;1.10;;;17.40;90.00;;;;;;932903;149;27259;-77
2022/11/08 10:33:51;;;;;;;1.30;1.20;;;17.50;89.90;;;;;;934800;149;27370;-79
2022/11/08 10:36:20;;;;;;;1.20;1.10;;;17.60;90.00;;;;;;934410;149;27349;-78
2022/11/08 10:38:46;;;;;;;2.00;1.15;;;17.70;89.90;;;;;;933670;150;27420;-78
2022/11/08 10:41:19;;;;;;;1.35;1.25;;;17.80;89.60;;;;;;931018;150;27341;-77
2022/11/08 10:43:48;;;;;;;1.50;1.00;;;18.00;88.50;;;;;;925592;150;27449;-78
2022/11/08 10:46:33;;;;;;;1.27;1.17;;;18.10;87.50;;;;;;930302;150;27454;-77
2022/11/08 10:49:00;;;;;;;1.30;1.20;;;18.10;86.30;;;;;;942035;147;27336;-77
2022/11/08 10:51:26;;;;;;;0.98;0.98;;;18.20;85.50;;;;;;944179;147;27292;-78
2022/11/08 10:53:53;;;;;;;1.95;1.20;;;18.30;84.80;;;;;;962792;147;27835;-77
2022/11/08 10:56:19;;;;;;;1.45;1.35;;;18.30;84.20;;;;;;948566;147;27365;-78
2022/11/08 10:58:46;;;;;;;1.57;1.25;;;18.30;83.80;;;;;;949164;147;27462;-77
2022/11/08 11:01:13;;;;;;;2.08;1.27;;;18.30;83.20;;;;;;949764;147;27294;-78
2022/11/08 11:03:39;;;;;;;1.50;1.40;;;18.40;83.10;;;;;;964181;147;27385;-77
2022/11/08 11:06:06;;;;;;;2.37;1.30;;;18.40;82.80;;;;;;946848;147;27311;-78
2022/11/08 11:08:32;;;;;;;1.17;1.15;;;18.40;82.50;;;;;;953629;147;27422;-78
2022/11/08 11:11:14;;;;;;;1.42;1.30;;;18.40;81.80;;;;;;968967;144;27324;-77
2022/11/08 11:13:41;;;;;;;1.02;1.02;;;18.40;81.60;;;;;;949941;147;27460;-78
2022/11/08 11:16:07;;;;;;;2.02;1.20;;;18.40;81.30;;;;;;964709;144;27981;-77
2022/11/08 11:18:34;;;;;;;1.35;1.20;;;18.50;81.00;;;;;;959679;145;27270;-78
2022/11/08 11:21:09;;;;;;;0.82;0.82;;;18.50;80.80;;;;;;959762;146;27275;-78
2022/11/08 11:23:36;;;;;;;1.30;1.20;;;18.50;80.40;;;;;;958803;148;27959;-80
2022/11/08 11:26:03;;;;;;;1.70;1.40;;;18.60;80.30;;;;;;959496;148;27338;-77
2022/11/08 11:28:29;;;;;;;1.32;1.22;;;18.60;80.00;;;;;;968875;144;27300;-78
2022/11/08 11:30:59;;;;;;;1.17;1.07;;;18.60;79.60;;;;;;968887;144;27361;-78
2022/11/08 11:33:25;;;;;;;0.90;0.90;;;18.70;79.60;;;;;;967824;144;27447;-78
2022/11/08 11:35:57;;;;;;;1.10;1.00;;;18.70;79.30;;;;;;952117;147;27458;-78
2022/11/08 11:38:39;;;;;;;1.85;1.20;;;18.80;79.30;;;;;;967378;144;27374;-77
2022/11/08 11:41:14;;;;;;;1.02;1.02;;;18.90;79.20;;;;;;941440;148;27240;-77
2022/11/08 11:43:44;;;;;;;2.05;1.30;;;19.00;79.90;;;;;;957065;146;27454;-79
2022/11/08 11:46:13;;;;;;;2.15;1.30;;;19.10;78.80;;;;;;966295;144;27504;-78
2022/11/08 11:48:40;;;;;;;1.20;1.10;;;19.10;78.60;;;;;;967896;144;27311;-78
2022/11/08 11:51:06;;;;;;;1.00;0.90;;;19.20;78.50;;;;;;965325;144;27341;-78
2022/11/08 11:53:35;;;;;;;0.90;0.90;;;19.20;78.00;;;;;;964066;146;27319;-78
2022/11/08 11:56:21;;;;;;;2.00;1.12;;;19.30;77.50;;;;;;962695;147;27966;-78
2022/11/08 11:59:12;;;;;;;1.62;1.35;;;19.30;77.20;;;;;;956874;145;27369;-78
2022/11/08 12:01:57;;;;;;;1.30;1.20;;;19.40;77.20;;;;;;952189;147;27448;-78
2022/11/08 12:04:42;;;;;;;0.95;0.95;;;19.40;77.10;;;;;;955122;147;27367;-77
2022/11/08 12:07:27;;;;;;;0.98;0.95;;;19.40;77.00;;;;;;959557;147;27314;-79
2022/11/08 12:10:02;;;;;;;2.22;1.02;;;19.50;77.00;;;;;;959392;147;27391;-78
2022/11/08 12:12:38;;;;;;;3.27;1.12;;;19.50;77.10;;;;;;958205;148;27348;-77
2022/11/08 12:15:07;;;;;;;2.58;1.42;;;19.50;76.70;;;;;;957627;147;27432;-78
2022/11/08 12:17:55;;;;;;;1.30;1.20;;;19.60;76.40;;;;;;957966;148;27418;-78
2022/11/08 12:20:40;;;;;;;0.90;0.90;;;19.60;76.30;;;;;;949838;147;27384;-77
2022/11/08 12:23:09;;;;;;;0.95;0.85;;;19.70;76.30;;;;;;957373;147;27385;-77
2022/11/08 12:26:00;;;;;;;3.72;2.62;;;19.80;76.20;;;;;;958731;147;27354;-77
2022/11/08 12:28:29;;;;;;;2.60;1.45;;;19.80;75.40;;;;;;960261;147;27349;-78
2022/11/08 12:31:18;;;;;;;1.62;1.05;;;19.90;74.90;;;;;;952067;147;27262;-78
2022/11/08 12:33:52;;;;;;;1.60;1.10;;;19.90;74.70;;;;;;954167;146;27375;-77
2022/11/08 12:36:24;;;;;;;1.42;1.02;;;20.00;74.50;;;;;;956437;146;27389;-77
2022/11/08 12:39:13;;;;;;;1.60;1.00;;;20.10;73.60;;;;;;956764;146;27339;-77
2022/11/08 12:41:57;;;;;;;3.20;0.95;;;20.10;72.70;;;;;;957696;146;27330;-78
2022/11/08 12:44:45;;;;;;;1.00;0.90;;;20.20;72.40;;;;;;954867;146;27316;-77
2022/11/08 12:47:21;;;;;;;0.80;0.80;;;20.20;71.70;;;;;;946972;147;27845;-78
2022/11/08 12:50:10;;;;;;;0.47;0.47;;;20.20;71.40;;;;;;937739;147;27298;-78
2022/11/08 12:52:48;;;;;;;1.30;1.02;;;20.20;71.30;;;;;;960563;145;27466;-78
2022/11/08 12:55:24;;;;;;;2.22;1.55;;;20.20;71.00;;;;;;957014;148;27431;-78
2022/11/08 12:57:50;;;;;;;0.75;0.75;;;20.20;71.00;;;;;;954365;148;27345;-78
2022/11/08 13:00:17;;;;;;;0.90;0.90;;;20.30;71.30;;;;;;958744;148;27402;-78
2022/11/08 13:02:43;;;;;;;3.17;1.00;;;20.30;70.90;;;;;;955675;148;27313;-78
2022/11/08 13:05:10;;;;;;;1.57;1.47;;;20.30;70.70;;;;;;956402;148;27363;-79
2022/11/08 13:07:45;;;;;;;2.17;1.85;;;20.30;70.60;;;;;;955073;148;27430;-77
2022/11/08 13:10:27;;;;;;;2.00;1.90;;;20.30;70.50;;;;;;956804;148;27379;-78
2022/11/08 13:13:02;;;;;;;1.45;1.35;;;20.30;70.10;;;;;;954555;148;27296;-78
2022/11/08 13:15:29;;;;;;;1.75;1.00;;;20.30;70.20;;;;;;939656;148;27310;-77